KPF124 LERL-LEIZ
Flight info
| Callsign | KPF124 |
|---|---|
| Flight time | 0h 9m |
| Altitude | 13000 |
| Route | AMIBU |
| Aircraft | CL60/M-SBDE1E2E3FGHIJ1J4J5J7M3RWXYZ/LB1V1D1 |
Departure
| Time | 2026-05-09 09:08 |
|---|---|
| Airport | Ciudad Real International Airport (LERL) |
Arrival
| Time | 2026-05-09 09:17 |
|---|---|
| Airport | La Perdiz - Torre De Juan Abad Airfield (LEIZ) |
| Time | Latitude | Longitude | Altitude | Speed | Heading |
|---|---|---|---|---|---|
| 2026-05-09 09:01 | 38.86433 | -3.99397 | 2043 ft | 0 kts | 105° |
| 2026-05-09 09:06 | 38.86419 | -3.99343 | 2043 ft | 12 kts | 119° |
| 2026-05-09 09:06 | 38.86370 | -3.99281 | 2043 ft | 8 kts | 150° |
| 2026-05-09 09:06 | 38.86306 | -3.99248 | 2043 ft | 11 kts | 160° |
| 2026-05-09 09:07 | 38.86221 | -3.99249 | 2044 ft | 13 kts | 185° |
| 2026-05-09 09:07 | 38.86126 | -3.99239 | 2045 ft | 14 kts | 173° |
| 2026-05-09 09:07 | 38.86039 | -3.99207 | 2046 ft | 12 kts | 127° |
| 2026-05-09 09:07 | 38.86007 | -3.99050 | 2047 ft | 42 kts | 103° |
| 2026-05-09 09:08 | 38.85868 | -3.98242 | 2059 ft | 141 kts | 102° |
| 2026-05-09 09:08 | 38.85621 | -3.96809 | 2581 ft | 178 kts | 105° |
| 2026-05-09 09:08 | 38.85365 | -3.95237 | 3391 ft | 194 kts | 105° |
| 2026-05-09 09:08 | 38.85073 | -3.93380 | 4119 ft | 237 kts | 104° |
| 2026-05-09 09:09 | 38.84723 | -3.91173 | 4825 ft | 263 kts | 104° |
| 2026-05-09 09:09 | 38.84082 | -3.89001 | 5559 ft | 264 kts | 129° |
| 2026-05-09 09:09 | 38.82694 | -3.87466 | 6316 ft | 266 kts | 148° |
| 2026-05-09 09:09 | 38.81150 | -3.86132 | 6792 ft | 268 kts | 148° |
| 2026-05-09 09:10 | 38.79610 | -3.84787 | 6943 ft | 268 kts | 148° |
| 2026-05-09 09:10 | 38.78077 | -3.83427 | 6965 ft | 267 kts | 148° |
| 2026-05-09 09:10 | 38.76555 | -3.82059 | 6970 ft | 267 kts | 147° |
| 2026-05-09 09:10 | 38.75040 | -3.80677 | 6968 ft | 267 kts | 147° |
| 2026-05-09 09:11 | 38.73526 | -3.79275 | 6966 ft | 266 kts | 147° |
| 2026-05-09 09:11 | 38.72026 | -3.77866 | 6966 ft | 266 kts | 146° |
| 2026-05-09 09:11 | 38.70550 | -3.76459 | 6970 ft | 267 kts | 146° |
| 2026-05-09 09:11 | 38.69061 | -3.75009 | 6973 ft | 268 kts | 145° |
| 2026-05-09 09:12 | 38.67594 | -3.73539 | 6973 ft | 268 kts | 144° |
| 2026-05-09 09:12 | 38.66135 | -3.72074 | 6973 ft | 268 kts | 144° |
| 2026-05-09 09:12 | 38.64652 | -3.70586 | 6971 ft | 268 kts | 144° |
| 2026-05-09 09:12 | 38.63186 | -3.69114 | 6975 ft | 268 kts | 144° |
| 2026-05-09 09:13 | 38.61711 | -3.67634 | 6975 ft | 269 kts | 144° |
| 2026-05-09 09:13 | 38.60243 | -3.66159 | 6973 ft | 269 kts | 144° |
| 2026-05-09 09:13 | 38.58775 | -3.64685 | 6976 ft | 269 kts | 144° |
| 2026-05-09 09:13 | 38.57297 | -3.63202 | 6958 ft | 270 kts | 144° |
| 2026-05-09 09:14 | 38.55811 | -3.61711 | 6653 ft | 273 kts | 144° |
| 2026-05-09 09:14 | 38.54339 | -3.60217 | 6314 ft | 269 kts | 141° |
| 2026-05-09 09:14 | 38.53155 | -3.58363 | 5951 ft | 271 kts | 120° |
| 2026-05-09 09:14 | 38.52606 | -3.56048 | 5570 ft | 273 kts | 99° |
| 2026-05-09 09:15 | 38.52442 | -3.53628 | 5216 ft | 270 kts | 96° |
| 2026-05-09 09:15 | 38.52323 | -3.51276 | 4892 ft | 266 kts | 95° |
| 2026-05-09 09:15 | 38.52195 | -3.48968 | 4520 ft | 252 kts | 97° |
| 2026-05-09 09:15 | 38.52043 | -3.46807 | 4276 ft | 236 kts | 97° |
| 2026-05-09 09:16 | 38.51924 | -3.44892 | 4149 ft | 197 kts | 98° |
| 2026-05-09 09:16 | 38.51712 | -3.41897 | 3607 ft | 140 kts | 98° |
| 2026-05-09 09:16 | 38.51629 | -3.40829 | 3379 ft | 150 kts | 100° |
| 2026-05-09 09:17 | 38.51526 | -3.39573 | 3124 ft | 135 kts | 98° |
| 2026-05-09 09:17 | 38.51450 | -3.38398 | 2904 ft | 131 kts | 98° |
| 2026-05-09 09:17 | 38.51374 | -3.37283 | 2749 ft | 118 kts | 97° |
| 2026-05-09 09:17 | 38.51323 | -3.36515 | 2753 ft | 38 kts | 96° |
| 2026-05-09 09:18 | 38.51298 | -3.36167 | 2765 ft | 38 kts | 95° |
| 2026-05-09 09:18 | 38.51275 | -3.35807 | 2742 ft | 39 kts | 94° |
| 2026-05-09 09:18 | 38.51271 | -3.35604 | 2727 ft | 12 kts | 58° |
| 2026-05-09 09:18 | 38.51260 | -3.35611 | 2727 ft | 8 kts | 275° |
| 2026-05-09 09:19 | 38.51273 | -3.35793 | 2741 ft | 26 kts | 275° |
| 2026-05-09 09:19 | 38.51288 | -3.36000 | 2758 ft | 24 kts | 273° |
| 2026-05-09 09:19 | 38.51304 | -3.36259 | 2765 ft | 29 kts | 273° |
| 2026-05-09 09:19 | 38.51321 | -3.36497 | 2754 ft | 25 kts | 274° |
| 2026-05-09 09:20 | 38.51333 | -3.36679 | 2740 ft | 14 kts | 275° |
| 2026-05-09 09:20 | 38.51323 | -3.36759 | 2736 ft | 8 kts | 186° |
| 2026-05-09 09:20 | 38.51277 | -3.36762 | 2736 ft | 2 kts | 180° |
| 2026-05-09 09:20 | 38.51262 | -3.36779 | 2736 ft | 4 kts | 285° |
| 2026-05-09 09:21 | 38.51272 | -3.36785 | 2734 ft | 0 kts | 7° |